sensor_id;sensor_type;location;lat;lon;timestamp;temperature;humidity
19536;HTU21D;9913;51.168;4.124;2023-07-22T00:01:52;16.36;87.42
19536;HTU21D;9913;51.168;4.124;2023-07-22T00:04:20;16.26;88.60
19536;HTU21D;9913;51.168;4.124;2023-07-22T00:06:49;16.36;87.86
19536;HTU21D;9913;51.168;4.124;2023-07-22T00:09:17;16.31;87.13
19536;HTU21D;9913;51.168;4.124;2023-07-22T00:11:49;16.45;90.82
19536;HTU21D;9913;51.168;4.124;2023-07-22T00:14:17;16.25;89.15
19536;HTU21D;9913;51.168;4.124;2023-07-22T00:16:46;16.34;86.22
19536;HTU21D;9913;51.168;4.124;2023-07-22T00:19:14;16.36;88.76
19536;HTU21D;9913;51.168;4.124;2023-07-22T00:21:46;16.25;87.37
19536;HTU21D;9913;51.168;4.124;2023-07-22T00:24:15;16.31;90.23
19536;HTU21D;9913;51.168;4.124;2023-07-22T00:26:43;16.12;90.01
19536;HTU21D;9913;51.168;4.124;2023-07-22T00:29:13;16.17;89.47
19536;HTU21D;9913;51.168;4.124;2023-07-22T00:31:41;16.30;88.22
19536;HTU21D;9913;51.168;4.124;2023-07-22T00:34:10;16.27;89.95
19536;HTU21D;9913;51.168;4.124;2023-07-22T00:36:38;16.16;88.70
19536;HTU21D;9913;51.168;4.124;2023-07-22T00:39:06;16.19;88.73
19536;HTU21D;9913;51.168;4.124;2023-07-22T00:41:35;16.21;88.80
19536;HTU21D;9913;51.168;4.124;2023-07-22T00:44:05;16.17;89.22
19536;HTU21D;9913;51.168;4.124;2023-07-22T00:46:34;16.15;88.53
19536;HTU21D;9913;51.168;4.124;2023-07-22T00:49:05;16.24;88.90
19536;HTU21D;9913;51.168;4.124;2023-07-22T00:51:34;16.04;87.85
19536;HTU21D;9913;51.168;4.124;2023-07-22T00:54:03;16.01;87.22
19536;HTU21D;9913;51.168;4.124;2023-07-22T00:56:33;15.99;87.23
19536;HTU21D;9913;51.168;4.124;2023-07-22T00:59:04;16.02;88.18
19536;HTU21D;9913;51.168;4.124;2023-07-22T01:01:34;15.96;86.47
19536;HTU21D;9913;51.168;4.124;2023-07-22T01:04:02;15.67;87.17
19536;HTU21D;9913;51.168;4.124;2023-07-22T01:06:31;15.88;86.74
19536;HTU21D;9913;51.168;4.124;2023-07-22T01:09:00;15.78;86.52
19536;HTU21D;9913;51.168;4.124;2023-07-22T01:11:29;15.89;86.48
19536;HTU21D;9913;51.168;4.124;2023-07-22T01:13:57;15.96;87.19
19536;HTU21D;9913;51.168;4.124;2023-07-22T01:16:27;16.03;86.97
19536;HTU21D;9913;51.168;4.124;2023-07-22T01:18:57;15.80;86.41
19536;HTU21D;9913;51.168;4.124;2023-07-22T01:21:26;15.87;87.06
19536;HTU21D;9913;51.168;4.124;2023-07-22T01:23:57;15.74;86.61
19536;HTU21D;9913;51.168;4.124;2023-07-22T01:26:25;15.86;86.44
19536;HTU21D;9913;51.168;4.124;2023-07-22T01:29:02;15.93;86.62
19536;HTU21D;9913;51.168;4.124;2023-07-22T01:31:31;15.87;86.45
19536;HTU21D;9913;51.168;4.124;2023-07-22T01:33:59;15.71;86.39
19536;HTU21D;9913;51.168;4.124;2023-07-22T01:36:27;15.81;85.93
19536;HTU21D;9913;51.168;4.124;2023-07-22T01:38:57;15.82;86.20
19536;HTU21D;9913;51.168;4.124;2023-07-22T01:41:27;15.61;86.08
19536;HTU21D;9913;51.168;4.124;2023-07-22T01:43:56;15.62;86.42
19536;HTU21D;9913;51.168;4.124;2023-07-22T01:46:24;15.66;86.48
19536;HTU21D;9913;51.168;4.124;2023-07-22T01:48:53;15.61;86.42
19536;HTU21D;9913;51.168;4.124;2023-07-22T01:51:21;15.57;86.58
19536;HTU21D;9913;51.168;4.124;2023-07-22T01:53:49;15.65;86.70
19536;HTU21D;9913;51.168;4.124;2023-07-22T01:56:19;15.63;86.27
19536;HTU21D;9913;51.168;4.124;2023-07-22T01:58:48;15.46;86.44
19536;HTU21D;9913;51.168;4.124;2023-07-22T02:01:17;15.55;86.69
19536;HTU21D;9913;51.168;4.124;2023-07-22T02:03:45;15.63;86.45
19536;HTU21D;9913;51.168;4.124;2023-07-22T02:06:14;15.57;86.67
19536;HTU21D;9913;51.168;4.124;2023-07-22T02:08:43;15.62;86.51
19536;HTU21D;9913;51.168;4.124;2023-07-22T02:11:11;15.60;86.45
19536;HTU21D;9913;51.168;4.124;2023-07-22T02:13:41;15.60;86.61
19536;HTU21D;9913;51.168;4.124;2023-07-22T02:16:10;15.47;86.41
19536;HTU21D;9913;51.168;4.124;2023-07-22T02:18:39;15.44;88.38
19536;HTU21D;9913;51.168;4.124;2023-07-22T02:21:08;15.61;87.73
19536;HTU21D;9913;51.168;4.124;2023-07-22T02:23:37;15.67;87.38
19536;HTU21D;9913;51.168;4.124;2023-07-22T02:26:05;15.60;87.10
19536;HTU21D;9913;51.168;4.124;2023-07-22T02:28:34;15.65;86.67
19536;HTU21D;9913;51.168;4.124;2023-07-22T02:31:04;15.70;86.71
19536;HTU21D;9913;51.168;4.124;2023-07-22T02:33:34;15.70;86.92
19536;HTU21D;9913;51.168;4.124;2023-07-22T02:36:03;15.56;87.87
19536;HTU21D;9913;51.168;4.124;2023-07-22T02:38:32;15.51;88.18
19536;HTU21D;9913;51.168;4.124;2023-07-22T02:41:03;15.57;88.14
19536;HTU21D;9913;51.168;4.124;2023-07-22T02:43:34;15.60;88.11
19536;HTU21D;9913;51.168;4.124;2023-07-22T02:46:06;15.58;87.69
19536;HTU21D;9913;51.168;4.124;2023-07-22T02:48:35;15.52;87.48
19536;HTU21D;9913;51.168;4.124;2023-07-22T02:51:07;15.45;87.66
19536;HTU21D;9913;51.168;4.124;2023-07-22T02:53:36;15.38;88.67
19536;HTU21D;9913;51.168;4.124;2023-07-22T02:56:05;15.40;88.38
19536;HTU21D;9913;51.168;4.124;2023-07-22T02:58:35;15.39;89.34
19536;HTU21D;9913;51.168;4.124;2023-07-22T03:01:05;15.36;89.55
19536;HTU21D;9913;51.168;4.124;2023-07-22T03:03:36;15.16;90.64
19536;HTU21D;9913;51.168;4.124;2023-07-22T03:06:05;14.98;90.77
19536;HTU21D;9913;51.168;4.124;2023-07-22T03:08:34;15.00;91.00
19536;HTU21D;9913;51.168;4.124;2023-07-22T03:11:03;15.09;90.79
19536;HTU21D;9913;51.168;4.124;2023-07-22T03:13:32;15.03;91.07
19536;HTU21D;9913;51.168;4.124;2023-07-22T03:16:02;14.86;90.98
19536;HTU21D;9913;51.168;4.124;2023-07-22T03:18:33;14.92;91.35
19536;HTU21D;9913;51.168;4.124;2023-07-22T03:21:01;14.66;91.11
19536;HTU21D;9913;51.168;4.124;2023-07-22T03:23:30;14.77;91.16
19536;HTU21D;9913;51.168;4.124;2023-07-22T03:25:59;14.73;91.51
19536;HTU21D;9913;51.168;4.124;2023-07-22T03:28:27;14.84;91.27
19536;HTU21D;9913;51.168;4.124;2023-07-22T03:30:55;14.73;91.59
19536;HTU21D;9913;51.168;4.124;2023-07-22T03:33:24;14.88;91.42
19536;HTU21D;9913;51.168;4.124;2023-07-22T03:35:54;14.65;91.44
19536;HTU21D;9913;51.168;4.124;2023-07-22T03:38:23;14.68;91.89
19536;HTU21D;9913;51.168;4.124;2023-07-22T03:40:51;14.75;91.36
19536;HTU21D;9913;51.168;4.124;2023-07-22T03:43:21;14.77;91.66
19536;HTU21D;9913;51.168;4.124;2023-07-22T03:45:49;14.71;91.66
19536;HTU21D;9913;51.168;4.124;2023-07-22T03:48:17;14.75;91.58
19536;HTU21D;9913;51.168;4.124;2023-07-22T03:50:46;14.60;91.72
19536;HTU21D;9913;51.168;4.124;2023-07-22T03:53:15;14.52;91.53
19536;HTU21D;9913;51.168;4.124;2023-07-22T03:55:44;14.67;91.82
19536;HTU21D;9913;51.168;4.124;2023-07-22T03:58:12;14.54;91.76
19536;HTU21D;9913;51.168;4.124;2023-07-22T04:00:40;14.66;92.17
19536;HTU21D;9913;51.168;4.124;2023-07-22T04:03:09;14.78;92.00
19536;HTU21D;9913;51.168;4.124;2023-07-22T04:05:37;14.95;91.39
19536;HTU21D;9913;51.168;4.124;2023-07-22T04:08:05;14.91;91.22
19536;HTU21D;9913;51.168;4.124;2023-07-22T04:10:35;14.91;91.38
19536;HTU21D;9913;51.168;4.124;2023-07-22T04:13:03;14.87;91.63
19536;HTU21D;9913;51.168;4.124;2023-07-22T04:15:32;14.84;91.85
19536;HTU21D;9913;51.168;4.124;2023-07-22T04:18:00;14.81;91.98
19536;HTU21D;9913;51.168;4.124;2023-07-22T04:20:28;14.83;91.82
19536;HTU21D;9913;51.168;4.124;2023-07-22T04:22:57;14.77;91.60
19536;HTU21D;9913;51.168;4.124;2023-07-22T04:25:28;14.92;91.54
19536;HTU21D;9913;51.168;4.124;2023-07-22T04:27:58;14.82;91.95
19536;HTU21D;9913;51.168;4.124;2023-07-22T04:30:26;14.96;92.01
19536;HTU21D;9913;51.168;4.124;2023-07-22T04:32:55;14.93;91.94
19536;HTU21D;9913;51.168;4.124;2023-07-22T04:35:24;14.85;91.89
19536;HTU21D;9913;51.168;4.124;2023-07-22T04:37:52;14.84;92.35
19536;HTU21D;9913;51.168;4.124;2023-07-22T04:40:20;14.82;92.37
19536;HTU21D;9913;51.168;4.124;2023-07-22T04:42:49;14.78;92.15
19536;HTU21D;9913;51.168;4.124;2023-07-22T04:45:19;14.88;92.60
19536;HTU21D;9913;51.168;4.124;2023-07-22T04:47:47;14.93;92.34
19536;HTU21D;9913;51.168;4.124;2023-07-22T04:50:16;14.93;92.29
19536;HTU21D;9913;51.168;4.124;2023-07-22T04:52:48;14.86;92.29
19536;HTU21D;9913;51.168;4.124;2023-07-22T04:55:17;14.84;91.79
19536;HTU21D;9913;51.168;4.124;2023-07-22T04:57:45;14.73;92.09
19536;HTU21D;9913;51.168;4.124;2023-07-22T05:00:14;14.63;92.17
19536;HTU21D;9913;51.168;4.124;2023-07-22T05:02:45;14.82;92.10
19536;HTU21D;9913;51.168;4.124;2023-07-22T05:05:15;14.77;92.12
19536;HTU21D;9913;51.168;4.124;2023-07-22T05:07:44;14.80;92.20
19536;HTU21D;9913;51.168;4.124;2023-07-22T05:10:12;14.82;91.76
19536;HTU21D;9913;51.168;4.124;2023-07-22T05:12:41;14.80;92.37
19536;HTU21D;9913;51.168;4.124;2023-07-22T05:15:10;14.74;92.53
19536;HTU21D;9913;51.168;4.124;2023-07-22T05:17:39;14.86;92.35
19536;HTU21D;9913;51.168;4.124;2023-07-22T05:20:10;14.93;92.32
19536;HTU21D;9913;51.168;4.124;2023-07-22T05:22:42;15.04;92.46
19536;HTU21D;9913;51.168;4.124;2023-07-22T05:25:11;14.99;92.28
19536;HTU21D;9913;51.168;4.124;2023-07-22T05:27:40;14.97;92.07
19536;HTU21D;9913;51.168;4.124;2023-07-22T05:30:08;15.08;92.43
19536;HTU21D;9913;51.168;4.124;2023-07-22T05:32:57;15.26;91.95
19536;HTU21D;9913;51.168;4.124;2023-07-22T05:35:27;15.26;92.24
19536;HTU21D;9913;51.168;4.124;2023-07-22T05:37:55;15.28;92.27
19536;HTU21D;9913;51.168;4.124;2023-07-22T05:40:24;15.36;91.97
19536;HTU21D;9913;51.168;4.124;2023-07-22T05:42:52;15.32;92.07
19536;HTU21D;9913;51.168;4.124;2023-07-22T05:45:20;15.55;91.91
19536;HTU21D;9913;51.168;4.124;2023-07-22T05:47:49;15.51;91.43
19536;HTU21D;9913;51.168;4.124;2023-07-22T05:50:17;15.58;91.54
19536;HTU21D;9913;51.168;4.124;2023-07-22T05:52:47;15.71;91.29
19536;HTU21D;9913;51.168;4.124;2023-07-22T05:55:16;15.73;91.05
19536;HTU21D;9913;51.168;4.124;2023-07-22T05:57:44;15.82;90.63
19536;HTU21D;9913;51.168;4.124;2023-07-22T06:00:13;15.84;90.73
19536;HTU21D;9913;51.168;4.124;2023-07-22T06:02:41;15.88;90.48
19536;HTU21D;9913;51.168;4.124;2023-07-22T06:05:10;15.92;90.50
19536;HTU21D;9913;51.168;4.124;2023-07-22T06:07:38;15.74;91.06
19536;HTU21D;9913;51.168;4.124;2023-07-22T06:10:09;15.73;91.19
19536;HTU21D;9913;51.168;4.124;2023-07-22T06:12:37;15.95;90.76
19536;HTU21D;9913;51.168;4.124;2023-07-22T06:15:06;16.10;90.44
19536;HTU21D;9913;51.168;4.124;2023-07-22T06:17:35;16.28;90.02
19536;HTU21D;9913;51.168;4.124;2023-07-22T06:20:04;16.41;89.70
19536;HTU21D;9913;51.168;4.124;2023-07-22T06:22:32;16.48;89.47
19536;HTU21D;9913;51.168;4.124;2023-07-22T06:25:01;16.52;89.18
19536;HTU21D;9913;51.168;4.124;2023-07-22T06:27:31;16.64;89.16
19536;HTU21D;9913;51.168;4.124;2023-07-22T06:29:59;16.61;89.65
19536;HTU21D;9913;51.168;4.124;2023-07-22T06:32:28;16.69;89.51
19536;HTU21D;9913;51.168;4.124;2023-07-22T06:34:57;16.82;89.66
19536;HTU21D;9913;51.168;4.124;2023-07-22T06:37:29;16.75;88.57
19536;HTU21D;9913;51.168;4.124;2023-07-22T06:39:58;16.74;88.77
19536;HTU21D;9913;51.168;4.124;2023-07-22T06:42:26;16.74;89.64
19536;HTU21D;9913;51.168;4.124;2023-07-22T06:44:56;16.63;89.47
19536;HTU21D;9913;51.168;4.124;2023-07-22T06:47:24;16.52;90.34
19536;HTU21D;9913;51.168;4.124;2023-07-22T06:49:53;16.67;89.45
19536;HTU21D;9913;51.168;4.124;2023-07-22T06:52:21;16.69;89.64
19536;HTU21D;9913;51.168;4.124;2023-07-22T06:54:50;16.82;90.01
19536;HTU21D;9913;51.168;4.124;2023-07-22T06:57:18;16.81;89.39
19536;HTU21D;9913;51.168;4.124;2023-07-22T06:59:46;16.89;89.77
19536;HTU21D;9913;51.168;4.124;2023-07-22T07:02:16;17.20;89.19
19536;HTU21D;9913;51.168;4.124;2023-07-22T07:04:45;17.29;88.92
19536;HTU21D;9913;51.168;4.124;2023-07-22T07:07:13;17.51;87.96
19536;HTU21D;9913;51.168;4.124;2023-07-22T07:09:42;17.39;87.25
19536;HTU21D;9913;51.168;4.124;2023-07-22T07:12:10;17.18;87.78
19536;HTU21D;9913;51.168;4.124;2023-07-22T07:14:39;17.14;88.29
19536;HTU21D;9913;51.168;4.124;2023-07-22T07:17:07;16.85;89.17
19536;HTU21D;9913;51.168;4.124;2023-07-22T07:19:37;17.22;88.77
19536;HTU21D;9913;51.168;4.124;2023-07-22T07:22:05;17.37;88.61
19536;HTU21D;9913;51.168;4.124;2023-07-22T07:24:34;17.47;88.82
19536;HTU21D;9913;51.168;4.124;2023-07-22T07:27:02;17.54;87.96
19536;HTU21D;9913;51.168;4.124;2023-07-22T07:29:31;17.55;87.32
19536;HTU21D;9913;51.168;4.124;2023-07-22T07:32:19;17.56;88.07
19536;HTU21D;9913;51.168;4.124;2023-07-22T07:34:49;17.64;86.54
19536;HTU21D;9913;51.168;4.124;2023-07-22T07:37:17;17.80;86.75
19536;HTU21D;9913;51.168;4.124;2023-07-22T07:39:46;18.09;85.65
19536;HTU21D;9913;51.168;4.124;2023-07-22T07:42:14;18.64;85.56
19536;HTU21D;9913;51.168;4.124;2023-07-22T07:44:43;18.55;84.04
19536;HTU21D;9913;51.168;4.124;2023-07-22T07:47:11;18.10;84.52
19536;HTU21D;9913;51.168;4.124;2023-07-22T07:49:39;18.74;84.97
19536;HTU21D;9913;51.168;4.124;2023-07-22T07:52:09;18.78;83.96
19536;HTU21D;9913;51.168;4.124;2023-07-22T07:54:37;19.00;83.57
19536;HTU21D;9913;51.168;4.124;2023-07-22T07:57:06;18.92;83.01
19536;HTU21D;9913;51.168;4.124;2023-07-22T07:59:34;18.95;82.75
19536;HTU21D;9913;51.168;4.124;2023-07-22T08:02:06;18.61;82.84
19536;HTU21D;9913;51.168;4.124;2023-07-22T08:04:36;18.30;83.60
19536;HTU21D;9913;51.168;4.124;2023-07-22T08:07:06;18.30;83.61
19536;HTU21D;9913;51.168;4.124;2023-07-22T08:09:36;18.25;84.09
19536;HTU21D;9913;51.168;4.124;2023-07-22T08:12:05;18.37;84.42
19536;HTU21D;9913;51.168;4.124;2023-07-22T08:14:33;18.41;84.23
19536;HTU21D;9913;51.168;4.124;2023-07-22T08:17:01;18.28;84.17
19536;HTU21D;9913;51.168;4.124;2023-07-22T08:19:30;18.35;83.10
19536;HTU21D;9913;51.168;4.124;2023-07-22T08:21:59;18.54;83.70
19536;HTU21D;9913;51.168;4.124;2023-07-22T08:24:27;18.85;82.94
19536;HTU21D;9913;51.168;4.124;2023-07-22T08:26:57;19.07;82.78
19536;HTU21D;9913;51.168;4.124;2023-07-22T08:29:25;19.31;81.93
19536;HTU21D;9913;51.168;4.124;2023-07-22T08:31:54;19.53;80.90
19536;HTU21D;9913;51.168;4.124;2023-07-22T08:34:22;19.39;81.02
19536;HTU21D;9913;51.168;4.124;2023-07-22T08:36:50;19.01;82.09
19536;HTU21D;9913;51.168;4.124;2023-07-22T08:39:19;19.30;81.97
19536;HTU21D;9913;51.168;4.124;2023-07-22T08:41:49;19.41;82.60
19536;HTU21D;9913;51.168;4.124;2023-07-22T08:44:20;19.27;80.28
19536;HTU21D;9913;51.168;4.124;2023-07-22T08:46:55;19.35;79.92
19536;HTU21D;9913;51.168;4.124;2023-07-22T08:49:26;19.35;79.52
19536;HTU21D;9913;51.168;4.124;2023-07-22T08:51:55;19.83;79.75
19536;HTU21D;9913;51.168;4.124;2023-07-22T08:54:24;20.15;78.03
19536;HTU21D;9913;51.168;4.124;2023-07-22T08:56:53;19.76;77.69
19536;HTU21D;9913;51.168;4.124;2023-07-22T08:59:24;19.77;77.99
19536;HTU21D;9913;51.168;4.124;2023-07-22T09:01:52;19.60;77.26
19536;HTU21D;9913;51.168;4.124;2023-07-22T09:04:22;19.60;78.21
19536;HTU21D;9913;51.168;4.124;2023-07-22T09:06:51;19.54;78.12
19536;HTU21D;9913;51.168;4.124;2023-07-22T09:09:21;19.56;77.96
19536;HTU21D;9913;51.168;4.124;2023-07-22T09:11:50;19.56;78.61
19536;HTU21D;9913;51.168;4.124;2023-07-22T09:14:22;19.95;78.12
19536;HTU21D;9913;51.168;4.124;2023-07-22T09:17:04;20.10;77.63
19536;HTU21D;9913;51.168;4.124;2023-07-22T09:19:33;20.14;77.61
19536;HTU21D;9913;51.168;4.124;2023-07-22T09:22:01;20.13;75.20
19536;HTU21D;9913;51.168;4.124;2023-07-22T09:24:29;20.40;75.50
19536;HTU21D;9913;51.168;4.124;2023-07-22T09:26:58;20.35;75.20
19536;HTU21D;9913;51.168;4.124;2023-07-22T09:29:36;20.27;74.34
19536;HTU21D;9913;51.168;4.124;2023-07-22T09:32:05;20.00;75.17
19536;HTU21D;9913;51.168;4.124;2023-07-22T09:34:34;20.29;75.25
19536;HTU21D;9913;51.168;4.124;2023-07-22T09:37:03;20.16;75.92
19536;HTU21D;9913;51.168;4.124;2023-07-22T09:39:32;20.48;73.55
19536;HTU21D;9913;51.168;4.124;2023-07-22T09:42:04;20.35;74.70
19536;HTU21D;9913;51.168;4.124;2023-07-22T09:44:34;20.46;75.60
19536;HTU21D;9913;51.168;4.124;2023-07-22T09:47:06;20.95;72.06
19536;HTU21D;9913;51.168;4.124;2023-07-22T09:49:40;21.14;72.08
19536;HTU21D;9913;51.168;4.124;2023-07-22T09:52:10;21.27;70.90
19536;HTU21D;9913;51.168;4.124;2023-07-22T09:54:47;21.25;70.91
19536;HTU21D;9913;51.168;4.124;2023-07-22T09:57:17;21.37;70.64
19536;HTU21D;9913;51.168;4.124;2023-07-22T09:59:48;21.14;70.09
19536;HTU21D;9913;51.168;4.124;2023-07-22T10:02:20;21.20;70.62
19536;HTU21D;9913;51.168;4.124;2023-07-22T10:04:51;21.16;69.72
19536;HTU21D;9913;51.168;4.124;2023-07-22T10:07:21;21.09;68.61
19536;HTU21D;9913;51.168;4.124;2023-07-22T10:09:51;21.34;70.60
19536;HTU21D;9913;51.168;4.124;2023-07-22T10:12:23;21.31;69.28
19536;HTU21D;9913;51.168;4.124;2023-07-22T10:14:54;21.21;69.57
19536;HTU21D;9913;51.168;4.124;2023-07-22T10:17:22;20.89;69.90
19536;HTU21D;9913;51.168;4.124;2023-07-22T10:19:51;20.66;70.09
19536;HTU21D;9913;51.168;4.124;2023-07-22T10:22:21;20.95;68.49
19536;HTU21D;9913;51.168;4.124;2023-07-22T10:24:50;20.70;67.84
19536;HTU21D;9913;51.168;4.124;2023-07-22T10:27:26;20.71;68.64
19536;HTU21D;9913;51.168;4.124;2023-07-22T10:30:03;20.70;67.46
19536;HTU21D;9913;51.168;4.124;2023-07-22T10:32:34;21.37;66.25
19536;HTU21D;9913;51.168;4.124;2023-07-22T10:35:04;22.05;67.88
19536;HTU21D;9913;51.168;4.124;2023-07-22T10:37:33;22.14;64.43
19536;HTU21D;9913;51.168;4.124;2023-07-22T10:40:19;22.17;64.02
19536;HTU21D;9913;51.168;4.124;2023-07-22T10:42:52;22.27;65.39
19536;HTU21D;9913;51.168;4.124;2023-07-22T10:45:27;22.52;65.39
19536;HTU21D;9913;51.168;4.124;2023-07-22T10:48:06;22.63;64.50
19536;HTU21D;9913;51.168;4.124;2023-07-22T10:50:42;22.34;63.99
19536;HTU21D;9913;51.168;4.124;2023-07-22T10:53:12;22.35;63.71
19536;HTU21D;9913;51.168;4.124;2023-07-22T10:56:06;22.48;64.89
19536;HTU21D;9913;51.168;4.124;2023-07-22T10:58:56;22.81;77.67
19536;HTU21D;9913;51.168;4.124;2023-07-22T11:01:33;22.34;82.81
19536;HTU21D;9913;51.168;4.124;2023-07-22T11:04:12;22.41;87.51
19536;HTU21D;9913;51.168;4.124;2023-07-22T11:06:54;22.76;91.47
19536;HTU21D;9913;51.168;4.124;2023-07-22T11:09:36;22.82;92.65
19536;HTU21D;9913;51.168;4.124;2023-07-22T11:12:06;22.03;93.45
19536;HTU21D;9913;51.168;4.124;2023-07-22T11:14:38;22.23;94.85
19536;HTU21D;9913;51.168;4.124;2023-07-22T11:17:08;22.36;94.60
19536;HTU21D;9913;51.168;4.124;2023-07-22T11:19:38;22.38;95.59
19536;HTU21D;9913;51.168;4.124;2023-07-22T11:22:06;21.91;91.24
19536;HTU21D;9913;51.168;4.124;2023-07-22T11:24:35;21.53;94.45
19536;HTU21D;9913;51.168;4.124;2023-07-22T11:27:05;21.87;96.07
19536;HTU21D;9913;51.168;4.124;2023-07-22T11:29:35;22.81;95.72
19536;HTU21D;9913;51.168;4.124;2023-07-22T11:32:04;22.93;91.76
19536;HTU21D;9913;51.168;4.124;2023-07-22T11:34:35;22.72;96.87
19536;HTU21D;9913;51.168;4.124;2023-07-22T11:37:03;23.31;95.08
19536;HTU21D;9913;51.168;4.124;2023-07-22T11:39:33;23.36;89.95
19536;HTU21D;9913;51.168;4.124;2023-07-22T11:42:03;23.24;91.05
19536;HTU21D;9913;51.168;4.124;2023-07-22T11:44:32;22.53;92.37
19536;HTU21D;9913;51.168;4.124;2023-07-22T11:47:02;23.13;92.64
19536;HTU21D;9913;51.168;4.124;2023-07-22T11:49:32;22.79;92.64
19536;HTU21D;9913;51.168;4.124;2023-07-22T11:52:04;23.73;91.34
19536;HTU21D;9913;51.168;4.124;2023-07-22T11:54:33;23.55;88.98
19536;HTU21D;9913;51.168;4.124;2023-07-22T11:57:13;23.18;90.13
19536;HTU21D;9913;51.168;4.124;2023-07-22T14:56:02;22.42;92.59
19536;HTU21D;9913;51.168;4.124;2023-07-22T14:58:30;22.35;88.95
19536;HTU21D;9913;51.168;4.124;2023-07-22T15:00:59;21.83;88.30
19536;HTU21D;9913;51.168;4.124;2023-07-22T15:03:29;21.69;90.69
19536;HTU21D;9913;51.168;4.124;2023-07-22T15:05:58;21.90;90.02
19536;HTU21D;9913;51.168;4.124;2023-07-22T15:08:26;21.70;92.08
19536;HTU21D;9913;51.168;4.124;2023-07-22T15:40:10;19.99;102.15
19536;HTU21D;9913;51.168;4.124;2023-07-22T15:42:38;19.76;103.46
19536;HTU21D;9913;51.168;4.124;2023-07-22T15:45:07;19.71;102.62
19536;HTU21D;9913;51.168;4.124;2023-07-22T15:47:36;19.60;102.64
19536;HTU21D;9913;51.168;4.124;2023-07-22T15:50:05;19.60;104.29
19536;HTU21D;9913;51.168;4.124;2023-07-22T15:52:34;19.45;105.43
19536;HTU21D;9913;51.168;4.124;2023-07-22T15:55:04;19.28;106.05
19536;HTU21D;9913;51.168;4.124;2023-07-22T15:57:34;19.36;106.93
19536;HTU21D;9913;51.168;4.124;2023-07-22T16:00:03;19.27;106.40
19536;HTU21D;9913;51.168;4.124;2023-07-22T16:02:36;19.51;107.31
19536;HTU21D;9913;51.168;4.124;2023-07-22T16:05:05;19.74;106.71
19536;HTU21D;9913;51.168;4.124;2023-07-22T16:07:43;19.67;105.78
19536;HTU21D;9913;51.168;4.124;2023-07-22T16:10:12;19.97;106.43
19536;HTU21D;9913;51.168;4.124;2023-07-22T16:12:41;19.99;105.98
19536;HTU21D;9913;51.168;4.124;2023-07-22T16:15:10;20.05;105.44
19536;HTU21D;9913;51.168;4.124;2023-07-22T16:17:38;19.96;105.53
19536;HTU21D;9913;51.168;4.124;2023-07-22T16:20:07;20.00;105.98
19536;HTU21D;9913;51.168;4.124;2023-07-22T16:22:37;19.87;106.24
19536;HTU21D;9913;51.168;4.124;2023-07-22T16:25:06;19.91;105.99
19536;HTU21D;9913;51.168;4.124;2023-07-22T16:27:36;19.86;106.25
19536;HTU21D;9913;51.168;4.124;2023-07-22T16:30:07;19.74;106.12
19536;HTU21D;9913;51.168;4.124;2023-07-22T16:32:35;19.87;106.77
19536;HTU21D;9913;51.168;4.124;2023-07-22T16:35:04;19.92;106.98
19536;HTU21D;9913;51.168;4.124;2023-07-22T16:37:33;19.86;107.54
19536;HTU21D;9913;51.168;4.124;2023-07-22T16:40:02;19.89;107.49
19536;HTU21D;9913;51.168;4.124;2023-07-22T16:42:31;19.96;106.98
19536;HTU21D;9913;51.168;4.124;2023-07-22T16:44:59;20.13;106.72
19536;HTU21D;9913;51.168;4.124;2023-07-22T16:47:29;20.02;107.01
19536;HTU21D;9913;51.168;4.124;2023-07-22T16:49:57;20.12;106.56
19536;HTU21D;9913;51.168;4.124;2023-07-22T16:52:26;19.99;107.14
19536;HTU21D;9913;51.168;4.124;2023-07-22T16:54:55;19.96;106.70
19536;HTU21D;9913;51.168;4.124;2023-07-22T16:57:23;20.11;106.11
19536;HTU21D;9913;51.168;4.124;2023-07-22T16:59:51;20.37;105.79
19536;HTU21D;9913;51.168;4.124;2023-07-22T17:02:20;20.45;106.29
19536;HTU21D;9913;51.168;4.124;2023-07-22T17:04:49;20.50;105.58
19536;HTU21D;9913;51.168;4.124;2023-07-22T17:07:18;20.43;106.86
19536;HTU21D;9913;51.168;4.124;2023-07-22T17:09:46;20.10;105.74
19536;HTU21D;9913;51.168;4.124;2023-07-22T17:12:14;19.84;106.47
19536;HTU21D;9913;51.168;4.124;2023-07-22T17:14:43;19.76;106.30
19536;HTU21D;9913;51.168;4.124;2023-07-22T17:17:11;19.94;107.23
19536;HTU21D;9913;51.168;4.124;2023-07-22T17:19:39;19.94;107.57
19536;HTU21D;9913;51.168;4.124;2023-07-22T17:22:09;19.61;106.33
19536;HTU21D;9913;51.168;4.124;2023-07-22T17:24:37;19.70;107.98
19536;HTU21D;9913;51.168;4.124;2023-07-22T17:27:06;19.70;107.69
19536;HTU21D;9913;51.168;4.124;2023-07-22T17:29:34;19.83;107.08
19536;HTU21D;9913;51.168;4.124;2023-07-22T17:32:06;19.52;107.42
19536;HTU21D;9913;51.168;4.124;2023-07-22T17:34:34;19.39;108.27
19536;HTU21D;9913;51.168;4.124;2023-07-22T17:37:02;19.31;107.36
19536;HTU21D;9913;51.168;4.124;2023-07-22T17:39:32;19.25;107.22
19536;HTU21D;9913;51.168;4.124;2023-07-22T17:42:01;19.28;104.81
19536;HTU21D;9913;51.168;4.124;2023-07-22T17:44:29;19.29;106.84
19536;HTU21D;9913;51.168;4.124;2023-07-22T17:46:57;19.30;105.86
19536;HTU21D;9913;51.168;4.124;2023-07-22T17:49:26;19.48;104.19
19536;HTU21D;9913;51.168;4.124;2023-07-22T17:51:54;19.30;107.74
19536;HTU21D;9913;51.168;4.124;2023-07-22T17:54:23;19.37;107.39
19536;HTU21D;9913;51.168;4.124;2023-07-22T17:56:52;19.50;107.83
19536;HTU21D;9913;51.168;4.124;2023-07-22T17:59:21;19.30;106.58
19536;HTU21D;9913;51.168;4.124;2023-07-22T18:01:49;19.46;106.34
19536;HTU21D;9913;51.168;4.124;2023-07-22T18:04:17;19.35;104.89
19536;HTU21D;9913;51.168;4.124;2023-07-22T18:06:46;19.38;101.40
19536;HTU21D;9913;51.168;4.124;2023-07-22T18:09:14;19.25;106.51
19536;HTU21D;9913;51.168;4.124;2023-07-22T18:11:42;19.40;106.67
19536;HTU21D;9913;51.168;4.124;2023-07-22T18:14:14;19.50;107.18
19536;HTU21D;9913;51.168;4.124;2023-07-22T18:16:43;19.37;107.07
19536;HTU21D;9913;51.168;4.124;2023-07-22T18:19:11;19.17;105.72
19536;HTU21D;9913;51.168;4.124;2023-07-22T18:21:39;19.12;104.42
19536;HTU21D;9913;51.168;4.124;2023-07-22T18:24:08;19.11;105.89
19536;HTU21D;9913;51.168;4.124;2023-07-22T18:26:36;19.05;104.39
19536;HTU21D;9913;51.168;4.124;2023-07-22T18:29:04;19.02;105.37
19536;HTU21D;9913;51.168;4.124;2023-07-22T18:31:34;18.98;100.50
19536;HTU21D;9913;51.168;4.124;2023-07-22T18:34:03;18.92;99.52
19536;HTU21D;9913;51.168;4.124;2023-07-22T18:36:31;18.87;104.52
19536;HTU21D;9913;51.168;4.124;2023-07-22T18:38:59;18.78;99.34
19536;HTU21D;9913;51.168;4.124;2023-07-22T18:41:28;18.77;93.20
19536;HTU21D;9913;51.168;4.124;2023-07-22T18:43:56;18.68;96.47
19536;HTU21D;9913;51.168;4.124;2023-07-22T18:46:24;18.63;92.75
19536;HTU21D;9913;51.168;4.124;2023-07-22T18:48:54;18.52;92.59
19536;HTU21D;9913;51.168;4.124;2023-07-22T18:51:23;18.50;90.86
19536;HTU21D;9913;51.168;4.124;2023-07-22T18:53:52;18.35;92.39
19536;HTU21D;9913;51.168;4.124;2023-07-22T18:56:20;18.38;91.07
19536;HTU21D;9913;51.168;4.124;2023-07-22T18:58:48;18.33;91.08
19536;HTU21D;9913;51.168;4.124;2023-07-22T19:01:16;18.17;90.05
19536;HTU21D;9913;51.168;4.124;2023-07-22T19:03:45;18.07;90.24
19536;HTU21D;9913;51.168;4.124;2023-07-22T19:06:15;18.06;89.92
19536;HTU21D;9913;51.168;4.124;2023-07-22T19:08:43;17.95;89.33